Time;durP1;ratioP1;P1;durP2;ratioP2;P2;SDS_P1;SDS_P2;PMS_P1;PMS_P2;Temp;Humidity;BMP_temperature;BMP_pressure;BME280_temperature;BME280_humidity;BME280_pressure;Samples;Min_cycle;Max_cycle;Signal;HPM_P1;HPM_P2
2021/04/05 00:01:58;;;;;;;14.02;8.02;;;;;;;4.66;74.12;100092.94;4990177;28;20053;-78
2021/04/05 00:04:26;;;;;;;14.73;8.20;;;;;;;4.65;74.69;100093.00;4962167;28;20516;-79
2021/04/05 00:06:53;;;;;;;13.05;8.15;;;;;;;4.52;74.64;100093.53;4992242;28;20045;-79
2021/04/05 00:09:20;;;;;;;14.90;7.72;;;;;;;4.57;74.34;100091.56;4975496;28;20532;-77
2021/04/05 00:11:46;;;;;;;14.40;7.65;;;;;;;4.48;75.70;100097.19;4978842;28;20125;-76
2021/04/05 00:14:13;;;;;;;16.25;7.97;;;;;;;4.30;76.27;100092.75;4995024;28;20046;-76
2021/04/05 00:16:40;;;;;;;12.73;8.70;;;;;;;4.42;76.12;100079.19;5002857;28;20054;-78
2021/04/05 00:19:07;;;;;;;15.93;9.40;;;;;;;4.15;76.91;100072.53;4987250;28;20745;-77
2021/04/05 00:21:34;;;;;;;12.95;7.70;;;;;;;4.22;76.91;100058.34;4978803;28;20573;-79
2021/04/05 00:24:00;;;;;;;16.23;9.27;;;;;;;4.15;76.98;100064.72;4981152;28;20062;-77
2021/04/05 00:26:27;;;;;;;19.30;9.68;;;;;;;4.19;76.70;100066.28;4966502;28;20133;-77
2021/04/05 00:28:54;;;;;;;14.57;9.25;;;;;;;4.25;76.62;100051.25;4995099;28;20094;-79
2021/04/05 00:31:21;;;;;;;19.33;10.25;;;;;;;4.13;77.14;100036.13;4994520;28;20133;-76
2021/04/05 00:33:47;;;;;;;14.68;9.63;;;;;;;4.20;76.89;100041.94;4979780;28;20533;-79
2021/04/05 00:36:14;;;;;;;17.67;10.40;;;;;;;4.19;76.41;100042.84;4979847;28;20136;-77
2021/04/05 00:38:41;;;;;;;17.25;10.82;;;;;;;4.15;76.64;100031.69;5001727;28;20110;-78
2021/04/05 00:41:10;;;;;;;18.63;10.40;;;;;;;4.16;77.14;100017.75;4997342;28;20515;-77
2021/04/05 00:43:40;;;;;;;16.45;10.88;;;;;;;4.12;77.96;100010.13;5001086;28;20066;-76
2021/04/05 00:46:08;;;;;;;17.65;11.48;;;;;;;4.13;77.59;100004.00;4989497;28;20046;-77
2021/04/05 00:48:36;;;;;;;18.92;11.20;;;;;;;4.13;76.99;99984.00;4991328;28;20082;-77
2021/04/05 00:51:09;;;;;;;21.25;11.45;;;;;;;4.11;77.29;99977.19;4994346;28;20062;-78
2021/04/05 00:53:40;;;;;;;20.45;12.45;;;;;;;4.07;77.32;99960.84;5006316;28;20039;-77
2021/04/05 00:56:08;;;;;;;17.70;10.40;;;;;;;4.03;77.56;99961.88;4992048;28;20073;-75
2021/04/05 00:58:36;;;;;;;15.85;9.65;;;;;;;3.80;77.47;99949.84;4991886;28;20043;-77
2021/04/05 01:01:06;;;;;;;16.90;10.63;;;;;;;3.71;78.00;99945.84;4990756;28;20085;-77
2021/04/05 01:03:36;;;;;;;14.35;9.05;;;;;;;3.79;78.09;99942.94;4996110;28;20129;-79
2021/04/05 01:06:09;;;;;;;16.38;9.57;;;;;;;3.81;77.73;99930.69;4986792;28;20108;-77
2021/04/05 01:08:36;;;;;;;18.55;10.07;;;;;;;3.68;78.90;99930.34;4991013;28;20110;-77
2021/04/05 01:11:05;;;;;;;18.75;9.60;;;;;;;3.66;78.27;99916.56;4997109;28;20054;-77
2021/04/05 01:13:32;;;;;;;20.92;9.65;;;;;;;3.51;79.20;99930.22;4994944;28;20485;-77
2021/04/05 01:15:59;;;;;;;12.77;8.73;;;;;;;3.63;78.97;99927.09;4990559;28;20470;-79
2021/04/05 01:18:30;;;;;;;15.05;8.57;;;;;;;3.58;78.84;99915.19;4994700;28;20093;-78
2021/04/05 01:20:59;;;;;;;11.93;8.02;;;;;;;3.58;78.60;99908.22;5000508;28;20050;-78
2021/04/05 01:23:26;;;;;;;12.65;7.93;;;;;;;3.60;79.25;99890.78;5000306;28;20142;-77
2021/04/05 01:25:53;;;;;;;15.88;9.02;;;;;;;3.55;79.41;99875.38;4981397;28;20065;-78
2021/04/05 01:28:21;;;;;;;15.85;8.95;;;;;;;3.65;79.06;99872.38;4993810;28;20047;-77
2021/04/05 01:30:50;;;;;;;13.55;9.10;;;;;;;3.54;79.09;99868.47;4979481;28;20042;-78
2021/04/05 01:33:35;;;;;;;18.55;8.65;;;;;;;3.34;80.10;99849.44;4981654;28;20082;-79
2021/04/05 01:36:04;;;;;;;11.32;8.43;;;;;;;3.42;80.04;99839.50;4965685;28;20042;-77
2021/04/05 01:38:34;;;;;;;14.68;8.43;;;;;;;3.34;80.05;99831.22;4982711;28;20061;-78
2021/04/05 01:41:05;;;;;;;13.15;8.10;;;;;;;3.40;80.19;99821.38;4984521;28;20054;-77
2021/04/05 01:43:32;;;;;;;13.13;8.32;;;;;;;3.29;80.88;99821.84;4997188;28;20078;-78
2021/04/05 01:46:00;;;;;;;19.60;8.98;;;;;;;3.46;79.79;99817.66;4979833;28;20148;-79
2021/04/05 01:48:28;;;;;;;18.00;9.13;;;;;;;3.52;79.49;99804.41;4991869;28;20516;-78
2021/04/05 01:50:57;;;;;;;16.65;9.05;;;;;;;3.39;79.63;99798.88;4987086;28;20084;-79
2021/04/05 01:53:24;;;;;;;14.73;8.82;;;;;;;3.54;79.54;99779.16;4966638;28;20102;-78
2021/04/05 01:55:51;;;;;;;16.52;9.98;;;;;;;3.53;79.26;99775.72;4944664;28;20123;-79
2021/04/05 01:58:40;;;;;;;14.50;9.18;;;;;;;3.37;79.35;99755.63;4928132;29;20060;-76
2021/04/05 02:01:13;;;;;;;14.88;8.88;;;;;;;3.30;79.54;99755.06;4921517;29;20134;-77
2021/04/05 02:03:40;;;;;;;17.83;10.02;;;;;;;3.27;80.10;99745.59;4941260;29;20062;-78
2021/04/05 02:10:07;;;;;;;22.63;9.93;;;;;;;3.27;79.60;99716.16;4923028;29;20149;-78
2021/04/05 02:12:36;;;;;;;16.60;10.52;;;;;;;3.21;79.95;99708.63;4917758;29;20083;-78
2021/04/05 02:15:13;;;;;;;17.55;9.60;;;;;;;3.35;79.74;99702.81;4925484;29;20082;-77
2021/04/05 02:17:40;;;;;;;21.33;10.45;;;;;;;3.29;80.24;99693.53;4925194;29;20066;-78
2021/04/05 02:20:09;;;;;;;25.98;12.40;;;;;;;3.30;80.24;99692.63;4922997;29;20140;-78
2021/04/05 02:22:41;;;;;;;14.98;9.73;;;;;;;3.28;80.42;99682.25;4951046;28;20046;-79
2021/04/05 02:25:18;;;;;;;23.77;12.25;;;;;;;3.21;80.15;99673.06;4976032;28;20062;-79
2021/04/05 02:27:49;;;;;;;16.77;10.15;;;;;;;3.33;79.81;99661.25;4989589;28;20081;-78
2021/04/05 02:30:23;;;;;;;17.90;11.57;;;;;;;3.33;79.93;99657.81;4978611;28;20030;-76
2021/04/05 02:33:05;;;;;;;23.02;13.02;;;;;;;3.31;79.86;99650.09;5007893;28;20064;-78
2021/04/05 02:35:33;;;;;;;19.73;11.15;;;;;;;3.32;79.56;99646.56;4996691;28;20092;-79
2021/04/05 02:38:02;;;;;;;22.98;12.35;;;;;;;3.37;79.51;99630.75;4997102;28;20077;-78
2021/04/05 02:40:30;;;;;;;21.67;11.30;;;;;;;3.32;79.46;99628.34;4988071;28;20051;-77
2021/04/05 02:42:58;;;;;;;19.75;11.75;;;;;;;3.27;79.59;99623.34;4997873;28;20069;-78
2021/04/05 02:45:35;;;;;;;22.88;10.65;;;;;;;3.39;79.11;99608.13;4995354;28;20049;-77
2021/04/05 02:48:02;;;;;;;22.70;11.75;;;;;;;3.34;79.61;99604.91;4994260;28;20493;-77
2021/04/05 02:50:30;;;;;;;26.25;12.93;;;;;;;3.32;79.17;99599.75;4996317;28;20080;-77
2021/04/05 02:52:59;;;;;;;25.25;12.48;;;;;;;3.40;79.14;99589.00;4980010;28;20050;-78
2021/04/05 02:55:26;;;;;;;24.08;13.15;;;;;;;3.29;79.11;99576.50;4995139;28;20062;-77
2021/04/05 02:57:54;;;;;;;23.10;12.32;;;;;;;3.21;79.41;99566.44;4975758;28;20141;-77
2021/04/05 03:00:21;;;;;;;23.75;11.32;;;;;;;3.12;79.98;99569.44;4963934;28;20134;-78
2021/04/05 03:02:51;;;;;;;21.35;11.57;;;;;;;3.34;79.23;99555.47;4977659;28;20132;-79
2021/04/05 03:05:22;;;;;;;22.77;12.07;;;;;;;3.37;78.28;99550.94;4991821;28;20113;-77
2021/04/05 03:07:50;;;;;;;17.92;11.43;;;;;;;3.46;78.13;99549.66;4983543;28;20039;-76
2021/04/05 03:10:23;;;;;;;22.85;12.15;;;;;;;3.37;78.47;99545.75;4973024;28;20054;-77
2021/04/05 03:12:53;;;;;;;19.77;11.30;;;;;;;3.41;78.56;99528.22;4981113;28;20061;-78
2021/04/05 03:15:20;;;;;;;20.77;11.00;;;;;;;3.37;78.35;99527.53;4976813;28;20078;-80
2021/04/05 03:17:48;;;;;;;18.23;10.60;;;;;;;3.36;78.30;99536.25;4996533;28;20051;-78
2021/04/05 03:20:19;;;;;;;21.45;11.00;;;;;;;3.37;78.45;99529.28;4980033;28;20121;-81
2021/04/05 03:22:46;;;;;;;20.70;10.90;;;;;;;3.39;78.75;99519.66;4978284;28;20088;-79
2021/04/05 03:25:18;;;;;;;22.77;12.15;;;;;;;3.29;79.03;99516.66;4975100;28;20164;-78
2021/04/05 03:27:47;;;;;;;19.00;10.38;;;;;;;3.41;78.58;99513.47;4991294;28;20073;-77
2021/04/05 03:30:21;;;;;;;20.10;11.00;;;;;;;3.33;78.70;99509.53;4992108;28;20140;-78
2021/04/05 03:32:53;;;;;;;18.47;12.23;;;;;;;3.30;78.92;99484.53;4970183;28;20054;-79
2021/04/05 03:35:24;;;;;;;19.30;11.13;;;;;;;3.45;78.22;99482.94;4974427;28;20146;-78
2021/04/05 03:37:51;;;;;;;22.15;10.75;;;;;;;3.33;78.44;99471.34;4978410;28;20403;-77
2021/04/05 03:40:18;;;;;;;19.15;10.70;;;;;;;3.32;78.74;99484.44;4991582;28;20060;-78
2021/04/05 03:42:52;;;;;;;22.25;10.18;;;;;;;3.49;78.06;99495.72;4989257;28;20049;-78
2021/04/05 03:45:25;;;;;;;26.10;11.57;;;;;;;3.26;78.86;99486.44;4962307;28;20051;-77
2021/04/05 03:48:17;;;;;;;31.05;11.55;;;;;;;3.31;78.97;99486.22;4978538;28;20134;-78
2021/04/05 03:50:51;;;;;;;27.00;12.43;;;;;;;3.42;78.36;99465.75;4988484;28;20038;-77
2021/04/05 03:53:33;;;;;;;27.85;13.45;;;;;;;3.55;78.03;99458.16;4981279;28;20086;-77
2021/04/05 03:56:06;;;;;;;23.83;12.63;;;;;;;3.47;77.95;99452.50;4997471;28;20050;-78
2021/04/05 03:58:33;;;;;;;25.42;12.52;;;;;;;3.40;78.55;99446.75;4984814;28;20595;-78
2021/04/05 04:01:05;;;;;;;28.52;13.65;;;;;;;3.42;78.46;99439.72;4986731;28;20066;-78
2021/04/05 04:03:55;;;;;;;28.55;13.30;;;;;;;3.25;79.28;99445.72;4985957;28;20082;-78
2021/04/05 04:06:30;;;;;;;24.77;12.82;;;;;;;3.36;79.14;99439.16;4966067;28;20039;-77
2021/04/05 04:08:58;;;;;;;22.60;13.18;;;;;;;3.34;78.71;99436.66;4981804;28;20441;-78
2021/04/05 04:11:27;;;;;;;29.08;14.52;;;;;;;3.44;78.73;99421.44;4999026;28;20451;-77
2021/04/05 04:13:55;;;;;;;25.08;14.63;;;;;;;3.50;77.72;99421.97;4960744;28;20583;-78
2021/04/05 04:16:23;;;;;;;25.38;14.68;;;;;;;3.53;78.09;99431.38;4982397;28;20078;-81
2021/04/05 04:18:51;;;;;;;35.20;15.23;;;;;;;3.50;77.68;99424.56;4995305;28;20061;-78
2021/04/05 04:21:19;;;;;;;31.67;15.35;;;;;;;3.46;78.19;99410.00;4973893;28;20153;-77
2021/04/05 04:23:46;;;;;;;33.05;16.05;;;;;;;3.49;77.81;99391.66;4958525;28;20415;-78
2021/04/05 04:26:13;;;;;;;29.30;15.77;;;;;;;3.45;78.04;99387.53;4986566;28;20070;-78
2021/04/05 04:28:44;;;;;;;30.17;16.70;;;;;;;3.56;78.06;99381.81;4976823;28;20073;-79
2021/04/05 04:31:11;;;;;;;29.95;16.52;;;;;;;3.69;77.82;99376.81;4991639;28;20389;-78
2021/04/05 04:33:38;;;;;;;34.70;17.05;;;;;;;3.63;77.29;99379.72;4993277;28;20187;-77
2021/04/05 04:36:06;;;;;;;26.98;15.95;;;;;;;3.58;77.41;99372.16;4960615;28;20058;-79
2021/04/05 04:38:33;;;;;;;39.25;18.02;;;;;;;3.60;77.72;99359.88;4967328;28;20050;-76
2021/04/05 04:41:00;;;;;;;37.88;17.65;;;;;;;3.63;77.19;99357.13;5001564;28;20054;-77
2021/04/05 04:43:28;;;;;;;35.63;18.90;;;;;;;3.62;77.71;99352.03;4977371;28;20043;-77
2021/04/05 04:45:56;;;;;;;31.50;18.52;;;;;;;3.76;77.46;99357.38;5000701;28;20061;-77
2021/04/05 04:48:23;;;;;;;32.20;17.60;;;;;;;3.87;76.83;99352.44;5006917;28;20101;-76
2021/04/05 04:50:50;;;;;;;37.72;18.58;;;;;;;3.85;76.35;99346.47;4988235;28;20058;-76
2021/04/05 04:53:17;;;;;;;34.28;19.05;;;;;;;3.94;75.93;99348.59;5003720;28;20054;-78
2021/04/05 04:55:44;;;;;;;35.20;18.80;;;;;;;3.80;76.86;99335.47;4982460;28;20392;-78
2021/04/05 04:58:11;;;;;;;36.92;20.08;;;;;;;3.92;75.93;99311.41;4999943;28;20064;-79
2021/04/05 05:00:38;;;;;;;40.13;20.70;;;;;;;3.80;76.39;99312.03;4975408;28;20042;-77
2021/04/05 05:03:06;;;;;;;33.75;19.95;;;;;;;3.98;75.71;99329.28;4958246;28;20050;-78
2021/04/05 05:05:33;;;;;;;40.65;21.33;;;;;;;3.89;76.35;99314.16;5001065;28;20578;-77
2021/04/05 05:08:01;;;;;;;41.47;20.55;;;;;;;3.82;76.58;99302.38;5004435;28;20073;-77
2021/04/05 05:10:28;;;;;;;40.33;21.42;;;;;;;3.84;76.67;99305.75;4963345;28;20066;-77
2021/04/05 05:12:56;;;;;;;40.28;22.33;;;;;;;3.81;77.22;99296.31;4996576;28;20124;-77
2021/04/05 05:15:24;;;;;;;43.75;21.98;;;;;;;3.98;76.36;99285.03;4990247;28;20503;-78
2021/04/05 05:17:51;;;;;;;40.50;21.58;;;;;;;4.04;75.91;99289.91;5004943;28;20060;-77
2021/04/05 05:20:19;;;;;;;43.83;21.90;;;;;;;4.04;75.78;99279.47;4992987;28;20054;-79
2021/04/05 05:22:51;;;;;;;44.88;22.15;;;;;;;4.07;76.18;99276.72;5006900;28;20109;-77
2021/04/05 05:25:20;;;;;;;44.35;21.33;;;;;;;4.04;75.49;99261.25;4973589;28;20126;-80
2021/04/05 05:27:57;;;;;;;44.88;21.63;;;;;;;4.25;74.87;99235.81;5002050;28;20403;-79
2021/04/05 05:30:24;;;;;;;47.17;21.55;;;;;;;4.25;74.65;99220.19;4988244;28;20137;-79
2021/04/05 05:32:53;;;;;;;37.35;19.90;;;;;;;4.34;74.65;99213.63;4987583;28;20110;-77
2021/04/05 05:35:21;;;;;;;43.00;20.92;;;;;;;4.17;75.21;99198.94;4996241;28;20474;-78
2021/04/05 05:37:48;;;;;;;37.72;22.20;;;;;;;4.28;74.80;99219.19;4986480;28;20118;-79
2021/04/05 05:40:19;;;;;;;45.03;22.75;;;;;;;4.31;74.72;99226.81;4980297;28;20047;-78
2021/04/05 05:43:26;;;;;;;34.47;21.48;;;;;;;4.35;74.79;99219.69;4995315;28;20503;-80
2021/04/05 05:46:04;;;;;;;43.03;21.98;;;;;;;4.28;75.35;99216.59;4959076;28;20134;-79
2021/04/05 05:48:48;;;;;;;46.38;22.67;;;;;;;4.29;75.17;99194.81;4989352;28;20054;-79
2021/04/05 05:51:28;;;;;;;41.97;21.38;;;;;;;4.29;75.12;99203.47;4956013;28;20054;-79
2021/04/05 05:54:03;;;;;;;45.83;22.65;;;;;;;4.38;75.15;99202.13;4978122;28;20050;-79
2021/04/05 05:56:51;;;;;;;41.10;22.23;;;;;;;4.41;74.81;99214.94;4978475;28;20467;-78
2021/04/05 05:59:36;;;;;;;41.13;20.95;;;;;;;4.57;74.50;99205.34;4978218;28;20073;-78
2021/04/05 06:02:30;;;;;;;40.70;20.75;;;;;;;4.68;73.20;99199.50;4989917;28;20050;-79
2021/04/05 06:05:17;;;;;;;40.63;21.50;;;;;;;4.84;73.18;99196.88;4997541;28;20055;-77
2021/04/05 06:07:50;;;;;;;40.28;21.10;;;;;;;4.81;73.22;99190.06;4975278;28;20058;-78
2021/04/05 06:11:02;;;;;;;42.13;22.58;;;;;;;4.94;72.72;99186.72;4986279;28;20234;-77
2021/04/05 06:13:44;;;;;;;37.42;20.80;;;;;;;4.96;73.34;99175.28;5003392;28;20062;-79
2021/04/05 06:16:37;;;;;;;39.63;20.75;;;;;;;5.04;72.16;99167.88;4967284;28;20511;-76
2021/04/05 06:19:15;;;;;;;39.17;20.60;;;;;;;4.74;73.48;99167.88;4995842;28;20074;-78
2021/04/05 06:21:50;;;;;;;47.70;22.25;;;;;;;4.91;73.90;99166.03;4968359;28;22882;-78
2021/04/05 06:24:27;;;;;;;36.17;21.10;;;;;;;5.06;72.33;99150.34;5001174;28;20153;-80
2021/04/05 06:26:59;;;;;;;41.75;20.88;;;;;;;5.21;72.11;99140.75;4994067;28;20485;-78
2021/04/05 06:29:33;;;;;;;40.00;19.95;;;;;;;5.41;71.68;99149.16;4983032;28;20054;-79
2021/04/05 06:32:33;;;;;;;36.70;20.15;;;;;;;5.36;71.78;99141.59;4995541;28;20057;-78
2021/04/05 06:35:28;;;;;;;42.08;19.73;;;;;;;5.42;71.30;99104.69;4996371;28;20070;-77
2021/04/05 06:37:58;;;;;;;37.25;20.48;;;;;;;5.57;70.86;99101.09;4979033;28;20082;-79
2021/04/05 06:40:30;;;;;;;34.83;20.75;;;;;;;5.68;70.76;99099.63;4994629;28;20153;-76
2021/04/05 06:43:00;;;;;;;34.28;19.80;;;;;;;5.57;70.92;99077.63;5007251;28;20073;-77
2021/04/05 06:45:47;;;;;;;45.10;20.15;;;;;;;5.67;70.41;99082.25;5002976;28;20062;-78
2021/04/05 06:48:32;;;;;;;;;;;;;;;5.60;71.60;99079.22;4975668;28;20078;-78
2021/04/05 06:51:28;;;;;;;40.65;19.77;;;;;;;5.74;70.83;99067.88;4999905;28;19969;-77
2021/04/05 06:54:26;;;;;;;33.85;18.52;;;;;;;5.90;70.18;99076.41;4986447;28;20042;-79
2021/04/05 06:57:04;;;;;;;43.17;19.08;;;;;;;5.95;71.04;99066.53;4973333;28;20106;-79
2021/04/05 06:59:46;;;;;;;37.55;19.08;;;;;;;6.11;69.64;99062.91;4987561;28;20551;-79
2021/04/05 07:02:27;;;;;;;38.35;19.02;;;;;;;6.32;68.70;99057.13;4990258;28;20113;-77
2021/04/05 07:05:06;;;;;;;34.75;18.70;;;;;;;6.24;69.14;99048.13;4995024;28;20061;-77
2021/04/05 07:07:45;;;;;;;34.95;18.40;;;;;;;6.43;68.42;99045.94;4985550;28;20395;-78
2021/04/05 07:10:26;;;;;;;39.25;19.33;;;;;;;6.23;70.26;99039.44;4983668;28;20050;-79
2021/04/05 07:13:06;;;;;;;33.10;19.58;;;;;;;6.13;71.11;99043.59;4986985;28;20070;-79
2021/04/05 07:15:41;;;;;;;38.10;18.90;;;;;;;5.99;72.16;99035.81;4987873;28;20149;-78
2021/04/05 07:18:31;;;;;;;36.55;19.83;;;;;;;5.93;74.60;99031.00;4989105;28;20058;-79
2021/04/05 07:21:18;;;;;;;39.72;19.85;;;;;;;5.91;75.58;99043.31;4983312;28;20133;-79
2021/04/05 07:24:09;;;;;;;38.80;19.58;;;;;;;5.67;77.68;99035.25;4976795;28;20070;-78
2021/04/05 07:26:50;;;;;;;39.70;20.65;;;;;;;5.57;78.32;99030.63;4997202;28;20108;-78
2021/04/05 07:29:27;;;;;;;35.58;19.65;;;;;;;5.46;79.29;99014.81;4992912;28;20121;-79
2021/04/05 07:32:20;;;;;;;41.70;20.65;;;;;;;5.46;80.51;99017.44;4980534;28;20054;-79
2021/04/05 07:34:50;;;;;;;39.88;19.92;;;;;;;5.51;79.23;99014.53;4978090;28;20092;-77
2021/04/05 07:37:28;;;;;;;43.03;21.40;;;;;;;5.32;80.50;99009.66;4979307;28;20138;-77
2021/04/05 07:40:07;;;;;;;45.83;20.35;;;;;;;5.46;80.53;99016.59;4963994;28;20066;-77
2021/04/05 07:42:46;;;;;;;39.72;19.73;;;;;;;5.59;80.53;99005.28;4991355;28;20077;-79
2021/04/05 07:45:21;;;;;;;38.13;19.63;;;;;;;5.56;81.18;99015.06;4995685;28;20480;-79
2021/04/05 07:48:03;;;;;;;43.72;20.63;;;;;;;5.46;81.65;99016.59;4968132;28;20054;-77
2021/04/05 07:51:07;;;;;;;37.35;20.23;;;;;;;5.56;81.42;99009.84;4984474;28;20038;-79
2021/04/05 07:53:51;;;;;;;44.13;20.30;;;;;;;5.54;82.04;99009.13;4996283;28;20065;-79
2021/04/05 07:56:34;;;;;;;43.75;19.85;;;;;;;5.35;82.20;99009.44;4996134;28;20144;-77
2021/04/05 07:59:21;;;;;;;38.58;18.83;;;;;;;5.30;83.47;99020.16;4983331;28;20072;-78
2021/04/05 08:01:50;;;;;;;46.75;22.23;;;;;;;5.26;84.45;99005.63;4999880;28;20077;-78
2021/04/05 08:05:10;;;;;;;44.10;22.75;;;;;;;4.99;86.17;99002.97;4986469;28;20543;-78
2021/04/05 08:07:52;;;;;;;47.20;21.23;;;;;;;4.99;86.35;99013.41;5000414;28;20419;-77
2021/04/05 08:10:23;;;;;;;41.15;21.17;;;;;;;5.05;88.04;99014.81;4998099;28;20107;-77
2021/04/05 08:13:08;;;;;;;46.08;23.02;;;;;;;5.04;88.46;99013.13;4999152;28;20069;-77
2021/04/05 08:15:50;;;;;;;45.03;21.95;;;;;;;4.86;88.27;99015.09;4985457;28;20069;-77
2021/04/05 08:18:30;;;;;;;41.40;22.08;;;;;;;4.81;90.02;99014.53;5001742;28;20105;-78
2021/04/05 08:21:18;;;;;;;42.22;21.33;;;;;;;4.83;91.21;99008.31;4982347;28;20455;-77
2021/04/05 08:23:52;;;;;;;45.47;21.90;;;;;;;4.78;91.72;99017.34;4983040;28;20114;-77
2021/04/05 08:26:33;;;;;;;47.15;21.77;;;;;;;4.98;94.20;99019.56;4999817;28;20086;-80
2021/04/05 08:29:21;;;;;;;53.20;23.80;;;;;;;4.66;92.68;99031.13;4996309;28;20058;-78
2021/04/05 08:32:32;;;;;;;48.13;23.85;;;;;;;4.72;94.27;99025.53;5007557;28;20427;-77
2021/04/05 08:35:25;;;;;;;48.70;25.10;;;;;;;4.72;94.07;99018.53;4991219;28;20067;-78
2021/04/05 08:38:17;;;;;;;44.45;23.13;;;;;;;4.68;94.66;99024.03;4982800;28;20047;-78
2021/04/05 08:41:11;;;;;;;49.67;24.83;;;;;;;4.79;94.01;99019.84;4991329;28;20077;-76
2021/04/05 08:43:40;;;;;;;56.15;24.35;;;;;;;4.77;94.16;99026.94;4993763;28;20054;-78
2021/04/05 08:46:12;;;;;;;45.72;23.98;;;;;;;4.68;94.63;99014.44;5005618;28;20081;-78
2021/04/05 08:48:44;;;;;;;50.30;24.85;;;;;;;4.71;95.16;99018.63;4989571;28;20058;-79
2021/04/05 08:51:14;;;;;;;47.42;23.83;;;;;;;4.70;95.38;99022.19;4994343;28;20066;-80
2021/04/05 08:53:47;;;;;;;50.85;25.70;;;;;;;4.55;96.01;99006.53;4983416;28;20054;-77
2021/04/05 08:56:15;;;;;;;54.58;24.25;;;;;;;4.55;96.44;99009.16;4968682;28;20389;-78
2021/04/05 08:58:53;;;;;;;51.35;25.73;;;;;;;4.73;96.53;98995.94;4999539;28;20050;-77
2021/04/05 09:01:23;;;;;;;52.70;25.25;;;;;;;4.58;97.30;99003.72;4992419;28;20070;-80
2021/04/05 09:03:50;;;;;;;50.40;25.45;;;;;;;4.66;96.55;99008.50;4980739;28;20045;-78
2021/04/05 09:06:35;;;;;;;54.35;26.98;;;;;;;4.76;96.89;99006.16;4960306;28;20094;-79
2021/04/05 09:09:03;;;;;;;45.35;24.33;;;;;;;4.57;97.64;99003.84;4994114;28;20054;-77
2021/04/05 09:11:35;;;;;;;52.17;25.08;;;;;;;4.62;97.37;99006.16;4982974;28;20121;-77
2021/04/05 09:14:03;;;;;;;50.00;24.90;;;;;;;4.48;96.98;99012.19;4989060;28;20050;-78
2021/04/05 09:16:55;;;;;;;54.08;27.63;;;;;;;4.44;98.49;99003.72;4996418;28;20134;-78
2021/04/05 09:19:53;;;;;;;55.55;25.50;;;;;;;4.52;98.50;99011.09;4989069;28;20067;-77
2021/04/05 09:22:53;;;;;;;47.28;25.77;;;;;;;4.47;99.04;99011.38;4970584;28;20043;-77
2021/04/05 09:25:40;;;;;;;53.08;28.55;;;;;;;4.44;99.21;99023.72;4962858;28;20141;-78
2021/04/05 09:28:22;;;;;;;58.05;25.83;;;;;;;4.37;99.73;99012.84;4995566;28;20054;-78
2021/04/05 09:31:20;;;;;;;49.92;24.92;;;;;;;4.36;100.00;99054.59;4993968;28;20031;-78
2021/04/05 09:34:08;;;;;;;23.05;11.85;;;;;;;4.01;96.04;99060.09;5001105;28;20053;-76
2021/04/05 09:36:43;;;;;;;20.42;10.57;;;;;;;3.85;96.97;99083.56;4997734;28;20054;-79
2021/04/05 09:39:10;;;;;;;6.72;3.72;;;;;;;3.54;93.21;99089.59;4959385;28;20153;-79
2021/04/05 09:42:08;;;;;;;11.30;4.43;;;;;;;3.65;95.07;99095.09;4999645;28;20054;-77
2021/04/05 09:44:48;;;;;;;6.15;3.00;;;;;;;3.67;94.88;99090.63;4998680;28;20098;-77
2021/04/05 09:47:28;;;;;;;4.55;2.42;;;;;;;3.55;94.78;99081.72;4998145;28;20031;-77
2021/04/05 09:50:27;;;;;;;4.35;2.63;;;;;;;3.61;94.85;99088.34;4972286;28;20138;-79
2021/04/05 09:53:09;;;;;;;4.40;2.40;;;;;;;3.76;94.26;99092.72;4965110;28;20032;-78
2021/04/05 09:55:43;;;;;;;3.75;2.10;;;;;;;3.63;94.99;99103.88;4999964;28;20054;-77
2021/04/05 09:58:14;;;;;;;2.67;1.60;;;;;;;3.61;94.47;99095.34;4978563;28;20058;-76
2021/04/05 10:01:02;;;;;;;4.82;1.60;;;;;;;3.63;94.49;99120.31;4993395;28;20058;-79
2021/04/05 10:03:29;;;;;;;5.32;2.03;;;;;;;3.60;95.29;99119.66;4982889;28;20058;-80
2021/04/05 10:05:57;;;;;;;3.05;2.15;;;;;;;3.65;94.07;99115.91;4965708;28;20042;-78
2021/04/05 10:08:26;;;;;;;6.80;1.30;;;;;;;3.59;94.50;99118.81;4983743;28;20061;-77
2021/04/05 10:10:55;;;;;;;3.15;1.50;;;;;;;3.69;94.30;99120.00;4970664;28;20088;-78
2021/04/05 10:13:26;;;;;;;4.95;2.72;;;;;;;3.75;93.74;99106.66;4963474;28;20085;-79
2021/04/05 10:16:11;;;;;;;1.80;1.20;;;;;;;3.67;93.90;99102.78;4970696;28;20057;-77
2021/04/05 10:18:46;;;;;;;5.72;1.92;;;;;;;3.87;94.75;99094.69;4990718;28;20058;-77
2021/04/05 10:21:13;;;;;;;2.78;1.27;;;;;;;3.81;94.31;99098.50;5004205;28;20543;-77
2021/04/05 10:23:41;;;;;;;2.28;1.20;;;;;;;4.00;93.13;99084.44;4974827;28;20053;-78
2021/04/05 10:26:08;;;;;;;2.80;1.40;;;;;;;4.10;92.94;99080.41;4975429;28;20133;-78
2021/04/05 10:28:37;;;;;;;3.45;1.70;;;;;;;4.31;92.56;99079.16;4976057;28;20459;-77
2021/04/05 10:31:08;;;;;;;9.43;1.60;;;;;;;4.30;91.48;99074.03;4976516;28;20116;-78
2021/04/05 10:33:37;;;;;;;2.22;0.80;;;;;;;4.31;90.58;99091.34;4962689;28;20055;-78
2021/04/05 10:36:09;;;;;;;1.92;0.70;;;;;;;4.41;90.06;99102.06;4991522;28;20045;-78
2021/04/05 10:38:37;;;;;;;6.13;0.80;;;;;;;4.43;87.98;99098.47;4959922;28;20129;-77
2021/04/05 10:41:06;;;;;;;0.98;0.77;;;;;;;4.55;88.03;99095.16;4994221;28;20052;-83
2021/04/05 10:43:41;;;;;;;4.93;1.33;;;;;;;4.42;86.06;99082.94;4999834;28;20045;-85
2021/04/05 10:46:32;;;;;;;3.28;1.60;;;;;;;4.48;86.37;99087.78;4981803;28;20026;-83
2021/04/05 10:49:09;;;;;;;2.33;1.17;;;;;;;4.40;86.73;99082.16;4979151;28;20065;-85
2021/04/05 10:51:52;;;;;;;3.40;0.70;;;;;;;4.52;86.00;99081.47;4978007;28;20106;-84
2021/04/05 10:54:52;;;;;;;;;;;;;;;;;;;;;
2021/04/05 10:57:59;;;;;;;;;;;;;;;5.04;82.78;99089.63;4995152;28;20073;-85
2021/04/05 11:00:41;;;;;;;1.85;1.00;;;;;;;4.78;83.42;99096.41;5004292;28;19922;-84
2021/04/05 11:03:16;;;;;;;2.67;1.33;;;;;;;4.41;84.76;99091.66;4976805;28;20042;-84
2021/04/05 11:05:46;;;;;;;2.45;1.23;;;;;;;4.38;84.51;99090.06;4951380;28;20073;-84
2021/04/05 11:08:24;;;;;;;1.90;1.50;;;;;;;4.86;84.39;99101.13;4967170;28;20066;-85
2021/04/05 11:11:00;;;;;;;3.00;1.52;;;;;;;4.79;83.24;99095.47;4954891;28;20050;-85
2021/04/05 11:13:28;;;;;;;3.03;1.63;;;;;;;4.41;84.06;99102.06;4974132;28;20053;-86
2021/04/05 11:15:59;;;;;;;1.98;1.25;;;;;;;4.56;84.17;99102.03;4950846;28;20042;-86
2021/04/05 11:18:33;;;;;;;4.18;1.73;;;;;;;4.35;82.69;99105.03;4984871;28;20514;-85
2021/04/05 11:21:01;;;;;;;3.90;1.67;;;;;;;4.29;84.00;99106.25;4959997;28;20027;-85
2021/04/05 11:23:49;;;;;;;6.18;2.20;;;;;;;4.27;83.54;99114.13;5001240;28;20026;-85
2021/04/05 12:09:58;;;;;;;2.15;1.05;;;;;;;1.74;93.26;99226.78;5018431;28;20045;-80
2021/04/05 12:12:44;;;;;;;4.85;1.30;;;;;;;1.39;94.28;99213.63;5004869;28;20073;-77
2021/04/05 12:15:16;;;;;;;1.70;0.75;;;;;;;1.50;95.85;99226.97;5012117;28;20053;-79
2021/04/05 12:17:50;;;;;;;2.55;0.60;;;;;;;1.71;92.73;99232.97;4995222;28;20117;-79
2021/04/05 12:20:23;;;;;;;3.08;0.77;;;;;;;2.03;91.89;99228.06;5011898;28;20069;-78
2021/04/05 12:22:52;;;;;;;1.67;0.65;;;;;;;2.53;90.25;99210.06;5031418;28;20062;-77
2021/04/05 12:25:31;;;;;;;1.80;0.80;;;;;;;2.91;87.77;99211.69;5028604;28;20053;-78
2021/04/05 12:27:59;;;;;;;1.13;0.63;;;;;;;3.01;88.00;99203.34;5006556;28;20050;-76
2021/04/05 12:30:28;;;;;;;1.63;0.60;;;;;;;3.21;85.66;99230.94;5017463;28;20045;-79
2021/04/05 12:32:56;;;;;;;1.90;0.65;;;;;;;2.94;86.44;99230.56;5013386;28;20282;-79
2021/04/05 12:35:24;;;;;;;1.55;0.73;;;;;;;3.13;85.41;99229.66;5032352;28;20086;-78
2021/04/05 12:37:57;;;;;;;0.47;0.30;;;;;;;3.21;83.93;99225.75;5006770;28;20535;-78
2021/04/05 12:40:27;;;;;;;1.05;0.50;;;;;;;3.10;83.18;99224.59;5018886;28;20076;-80
2021/04/05 12:42:55;;;;;;;1.17;0.35;;;;;;;3.11;83.26;99234.94;5033916;28;20124;-76
2021/04/05 12:45:22;;;;;;;3.25;1.38;;;;;;;3.54;82.65;99227.50;5026815;28;20050;-78
2021/04/05 12:47:51;;;;;;;2.30;0.60;;;;;;;3.96;80.57;99223.53;5008981;28;20617;-79
2021/04/05 12:50:22;;;;;;;0.75;0.45;;;;;;;3.86;78.61;99241.41;5010781;28;20081;-79
2021/04/05 12:52:50;;;;;;;2.38;0.70;;;;;;;3.62;78.97;99245.34;5029337;28;20046;-79
2021/04/05 12:55:19;;;;;;;5.03;0.60;;;;;;;3.88;79.03;99244.78;4999198;28;20061;-77